Mekoryuk, Alaska
Current Conditions -  °F | °C
As of 4:36 PM on Wednesday 26 Nov 2014 (Local Time) from PAMY Reporting Station
Overcast Overcast  
Wind Chill: 30°   Ceiling: 900
Heat Index: 39°   Visibility: 5mi
Dew Point: 32°   Wind: 16mph
Humidity: 75%   Direction: 160°SSE
Pressure: 30"   Gusts: 23mph
Location:  60.39°N, 166.19°W
Report Text: PAMY 270136Z AUTO 16014G20KT 5SM BKN009 OVC015 04/00 A3000 RMK AO1
Loading
Personal Weather Stations






























Interactive Weather Map New forecast layout! Learn more

10-Day Weather Forecast

Advertisements
Track Severe Weather on mobile